Terminal Aerodrome Forecast
Issued by NWS Knoxville/Tri Cities, TN

Home | Current Version | Previous Version | Text Only | Print | Product List | Glossary On
Versions: 1 2 3 4 5 6 7 8 9 10 11 12 13 14 15 16 17 18 19 20 21 22 23 24 25
000
FTUS44 KMRX 222338
TAFTRI
TAF
KTRI 222338Z 2300/2324 VRB04KT P6SM -RA SCT050 OVC100
     FM230300 15004KT 4SM -RA BR BKN025 OVC050
     FM230500 00000KT 4SM BR VCSH SCT010 OVC035
     FM231300 23007KT P6SM SCT020 OVC050
     FM231800 22010KT P6SM OVC050
     FM232200 22011KT P6SM OVC100=

USA.gov is the U.S. government's official web portal to all federal, state and local government web resources and services.